Airfield :
LOGIN :

Register | Disclaimer

   EN    FR    IT 

 










Legend :    VFR   Marginal VFR   IFR   Intensive IFR   Very Intensive IFR
Visi :
Ceiling :
>= 8 km
>= 3000ft
5 to 8 km
1000 to 3000 ft
1500m to 5 km
500 to 1000 ft
800 to 1500m
200 to 500 ft
< 800m
< 200 ft
Symbols :   Thunderstorms  Fog  Heavy snow  Heavy precipitations  Wind > 20 kt
SIGMETs :     Misc.  Thunderstorms  Icing  Turbulence  Mountain Waves  Volcanic Ashes






- Airport Elevation : 75 ft
- IATA code : YEO


EGDY - RNAS Yeovilton

CURRENT METAR :
  • 082150Z AUTO 28016KT 9999 FEW034/// BKN050/// 07/02 Q1000 RERA

EXPIRED METARs :
  • 082121Z 27015KT 6000 -RA SCT030 BKN060 06/03 Q1000 NOSIG RMK WHT WHT
  • 082050Z 29015KT 5000 -RA SCT030 BKN050 06/03 Q1000 NOSIG RMK WHT WHT
  • 082020Z 27015KT 9999 -RA SCT035 BKN050 07/02 Q0999 BECMG 6000 -RA BKN025 RMK BLU BECMG WHT
  • 081950Z 29014KT 9999 -RA SCT035 BKN050 06/02 Q0999 BECMG 6000 -RA BKN025 RMK BLU BECMG WHT

TAF TAF EGDY
Valid from the 08 at 15:00 until the 09 at 00:00 UTC


081527Z 0815/0824 26015G25KT 9999 SCT035
BECMG 0818/0820 29015G30KT 6000 -RA BKN020
PROB40
TEMPO 0818/0822 4000 RA SCT012
BECMG 0822/0824 9999 FEW040



MET'MAP, your aeronautical weather chart ! - Copyright ORBIFLY December 2007 - Disclaimer

ORBIFLY MET'MAP TEAM :

Programming & Development : Alexandra Zaïnal
Concept & original design : Baudouin d'Aumeries
Assistance for programming : Marc-Olivier Méhu
Technical & hardware support : Manuel Goepfert

Contact : metmap@orbifly.com




SOURCES & CREDITS :

   NOAA